Time;durP1;ratioP1;P1;durP2;ratioP2;P2;SDS_P1;SDS_P2;PMS_P1;PMS_P2;Temp;Humidity;BMP_temperature;BMP_pressure;BME280_temperature;BME280_humidity;BME280_pressure;Samples;Min_cycle;Max_cycle;Signal;HPM_P1;HPM_P2
2021/09/19 00:01:15;;;;;;;1.92;1.83;;;;;;;;;;4699754;30;20206;-83
2021/09/19 00:03:48;;;;;;;1.83;1.73;;;;;;;;;;4699480;30;20714;-83
2021/09/19 00:06:17;;;;;;;2.67;2.25;;;;;;;;;;4699750;30;20205;-83
2021/09/19 00:08:44;;;;;;;2.10;1.90;;;;;;;;;;4698798;30;20233;-84
2021/09/19 00:11:15;;;;;;;1.40;1.30;;;;;;;;;;4699632;30;20564;-83
2021/09/19 00:13:43;;;;;;;1.65;1.55;;;;;;;;;;4699416;30;20659;-83
2021/09/19 00:16:12;;;;;;;1.65;1.55;;;;;;;;;;4699231;30;20198;-84
2021/09/19 00:18:40;;;;;;;1.40;1.40;;;;;;;;;;4699383;30;20843;-83
2021/09/19 00:21:17;;;;;;;1.30;1.20;;;;;;;;;;4699394;30;20651;-83
2021/09/19 00:23:44;;;;;;;1.50;1.40;;;;;;;;;;4699374;30;20195;-83
2021/09/19 00:26:18;;;;;;;1.70;1.60;;;;;;;;;;4699498;30;20217;-83
2021/09/19 00:28:46;;;;;;;1.20;1.20;;;;;;;;;;4699612;30;20245;-83
2021/09/19 00:31:24;;;;;;;1.30;1.30;;;;;;;;;;4699895;30;20225;-83
2021/09/19 00:33:51;;;;;;;1.65;1.13;;;;;;;;;;4699433;30;20197;-83
2021/09/19 00:36:19;;;;;;;1.23;1.20;;;;;;;;;;4699211;30;20225;-83
2021/09/19 00:38:46;;;;;;;1.00;1.00;;;;;;;;;;4698437;30;20718;-83
2021/09/19 00:41:14;;;;;;;1.10;1.10;;;;;;;;;;4699185;30;20213;-83
2021/09/19 00:43:44;;;;;;;0.90;0.90;;;;;;;;;;4699414;30;20195;-84
2021/09/19 00:46:17;;;;;;;1.27;1.23;;;;;;;;;;4699509;30;20226;-84
2021/09/19 00:48:46;;;;;;;1.40;1.30;;;;;;;;;;4698993;30;20234;-83
2021/09/19 00:51:14;;;;;;;1.70;1.20;;;;;;;;;;4699381;30;20218;-83
2021/09/19 00:53:47;;;;;;;1.30;1.23;;;;;;;;;;4699222;30;20206;-83
2021/09/19 00:56:26;;;;;;;1.60;1.50;;;;;;;;;;4698864;30;20663;-83
2021/09/19 00:59:00;;;;;;;1.30;1.30;;;;;;;;;;4699291;30;20223;-83
2021/09/19 01:01:28;;;;;;;1.20;1.20;;;;;;;;;;4699258;30;20203;-84
2021/09/19 01:04:02;;;;;;;1.20;1.20;;;;;;;;;;4699240;30;20206;-83
2021/09/19 01:06:30;;;;;;;1.65;1.55;;;;;;;;;;4698924;30;20199;-83
2021/09/19 01:09:18;;;;;;;1.30;1.20;;;;;;;;;;4699295;30;20195;-83
2021/09/19 01:11:48;;;;;;;1.40;1.30;;;;;;;;;;4698595;30;20215;-83
2021/09/19 01:14:18;;;;;;;1.40;1.30;;;;;;;;;;4699121;30;20545;-83
2021/09/19 01:17:14;;;;;;;1.30;1.25;;;;;;;;;;4698732;30;20223;-83
2021/09/19 01:19:57;;;;;;;1.05;1.05;;;;;;;;;;4699580;30;20596;-84
2021/09/19 01:22:39;;;;;;;0.98;0.98;;;;;;;;;;4702377;30;20198;-83
2021/09/19 01:25:17;;;;;;;1.40;1.30;;;;;;;;;;4702165;30;20206;-83
2021/09/19 01:27:52;;;;;;;2.28;1.30;;;;;;;;;;4702227;30;20234;-83
2021/09/19 01:30:33;;;;;;;1.45;1.35;;;;;;;;;;4702388;30;20224;-83
2021/09/19 01:33:10;;;;;;;1.17;1.17;;;;;;;;;;4702367;30;20198;-84
2021/09/19 01:35:45;;;;;;;2.00;1.55;;;;;;;;;;4702195;30;20198;-83
2021/09/19 01:38:35;;;;;;;1.70;1.60;;;;;;;;;;4701878;30;20690;-86
2021/09/19 01:41:21;;;;;;;1.42;1.40;;;;;;;;;;4701943;30;20224;-83
2021/09/19 01:43:56;;;;;;;1.35;1.35;;;;;;;;;;4702010;30;20206;-84
2021/09/19 01:46:25;;;;;;;1.42;1.38;;;;;;;;;;4701744;30;20202;-84
2021/09/19 01:48:55;;;;;;;1.40;1.30;;;;;;;;;;4702132;30;20210;-84
2021/09/19 01:51:22;;;;;;;1.55;1.45;;;;;;;;;;4701590;30;20198;-83
2021/09/19 01:53:52;;;;;;;1.42;1.33;;;;;;;;;;4701820;30;20586;-83
2021/09/19 01:56:24;;;;;;;1.33;1.33;;;;;;;;;;4701752;30;20218;-85
2021/09/19 01:58:55;;;;;;;1.25;1.20;;;;;;;;;;4701361;30;20226;-84
2021/09/19 02:01:24;;;;;;;1.50;1.40;;;;;;;;;;4700926;30;20191;-84
2021/09/19 02:03:53;;;;;;;1.60;1.50;;;;;;;;;;4701051;30;20574;-84
2021/09/19 02:06:21;;;;;;;1.50;1.40;;;;;;;;;;4700970;30;20195;-85
2021/09/19 02:08:49;;;;;;;1.35;1.25;;;;;;;;;;4700956;30;20230;-84
2021/09/19 02:11:18;;;;;;;1.35;1.25;;;;;;;;;;4700936;30;20195;-84
2021/09/19 02:13:49;;;;;;;1.27;1.23;;;;;;;;;;4701138;30;20187;-84
2021/09/19 02:16:20;;;;;;;1.52;1.42;;;;;;;;;;4701025;30;20211;-85
2021/09/19 02:18:48;;;;;;;1.20;1.10;;;;;;;;;;4700615;30;20694;-84
2021/09/19 02:21:16;;;;;;;1.00;1.00;;;;;;;;;;4700731;30;20194;-84
2021/09/19 02:23:44;;;;;;;1.63;1.52;;;;;;;;;;4700732;30;20202;-84
2021/09/19 02:26:11;;;;;;;1.60;1.50;;;;;;;;;;4700485;30;20229;-84
2021/09/19 02:28:39;;;;;;;2.03;1.83;;;;;;;;;;4700410;30;20238;-84
2021/09/19 02:31:07;;;;;;;2.05;1.90;;;;;;;;;;4700364;30;20203;-84
2021/09/19 02:33:35;;;;;;;2.00;1.70;;;;;;;;;;4700791;30;20207;-84
2021/09/19 02:36:03;;;;;;;2.10;2.00;;;;;;;;;;4700291;30;20667;-84
2021/09/19 02:38:31;;;;;;;1.45;1.35;;;;;;;;;;4700573;30;20238;-84
2021/09/19 02:40:59;;;;;;;1.60;1.50;;;;;;;;;;4700208;30;20239;-83
2021/09/19 02:43:26;;;;;;;1.55;1.45;;;;;;;;;;4700502;30;20567;-83
2021/09/19 02:45:54;;;;;;;2.17;1.80;;;;;;;;;;4700367;30;20191;-84
2021/09/19 02:48:23;;;;;;;1.63;1.50;;;;;;;;;;4700582;30;20600;-84
2021/09/19 02:50:52;;;;;;;1.50;1.40;;;;;;;;;;4700577;30;20277;-84
2021/09/19 02:53:19;;;;;;;1.58;1.48;;;;;;;;;;4700492;30;20205;-85
2021/09/19 02:55:47;;;;;;;1.50;1.40;;;;;;;;;;4699861;30;20230;-84
2021/09/19 02:58:14;;;;;;;1.50;1.40;;;;;;;;;;4699049;30;20249;-84
2021/09/19 03:00:41;;;;;;;1.65;1.55;;;;;;;;;;4699883;30;20218;-84
2021/09/19 03:03:09;;;;;;;1.75;1.65;;;;;;;;;;4700209;30;20217;-84
2021/09/19 03:05:38;;;;;;;2.35;2.15;;;;;;;;;;4699935;30;20214;-84
2021/09/19 03:08:05;;;;;;;1.35;1.25;;;;;;;;;;4700162;30;20230;-85
2021/09/19 03:10:33;;;;;;;1.70;1.60;;;;;;;;;;4699876;30;20198;-84
2021/09/19 03:13:00;;;;;;;2.15;1.98;;;;;;;;;;4700173;30;20205;-85
2021/09/19 03:15:28;;;;;;;1.50;1.40;;;;;;;;;;4699801;30;20209;-84
2021/09/19 03:17:57;;;;;;;1.40;1.25;;;;;;;;;;4699488;30;20246;-84
2021/09/19 03:20:24;;;;;;;1.60;1.50;;;;;;;;;;4699992;30;20253;-84
2021/09/19 03:22:53;;;;;;;1.88;1.77;;;;;;;;;;4699958;30;20220;-84
2021/09/19 03:25:21;;;;;;;1.75;1.52;;;;;;;;;;4699807;30;20206;-84
2021/09/19 03:27:48;;;;;;;1.65;1.55;;;;;;;;;;4699772;30;20241;-84
2021/09/19 03:30:17;;;;;;;2.00;1.80;;;;;;;;;;4699657;30;20211;-84
2021/09/19 03:32:46;;;;;;;2.42;2.22;;;;;;;;;;4699947;30;20210;-85
2021/09/19 03:35:14;;;;;;;1.90;1.80;;;;;;;;;;4699878;30;20199;-85
2021/09/19 03:37:42;;;;;;;1.20;1.10;;;;;;;;;;4699896;30;20235;-83
2021/09/19 03:40:13;;;;;;;1.52;1.42;;;;;;;;;;4699203;30;20238;-84
2021/09/19 03:42:41;;;;;;;1.50;1.40;;;;;;;;;;4699514;30;20218;-85
2021/09/19 03:45:10;;;;;;;1.73;1.63;;;;;;;;;;4699124;30;20205;-84
2021/09/19 03:47:37;;;;;;;1.20;1.20;;;;;;;;;;4699462;30;20237;-84
2021/09/19 03:50:07;;;;;;;1.20;1.20;;;;;;;;;;4699779;30;20202;-85
2021/09/19 03:52:34;;;;;;;1.42;1.33;;;;;;;;;;4699644;30;20195;-84
2021/09/19 03:55:02;;;;;;;1.70;1.60;;;;;;;;;;4699262;30;20717;-84
2021/09/19 03:57:31;;;;;;;1.73;1.63;;;;;;;;;;4699240;30;20238;-85
2021/09/19 03:59:58;;;;;;;1.65;1.55;;;;;;;;;;4699242;30;20214;-84
2021/09/19 04:02:26;;;;;;;1.73;1.63;;;;;;;;;;4699440;30;20633;-85
2021/09/19 04:04:53;;;;;;;2.00;1.90;;;;;;;;;;4699264;30;20191;-86
2021/09/19 04:07:21;;;;;;;1.50;1.40;;;;;;;;;;4699374;30;20238;-85
2021/09/19 04:09:48;;;;;;;1.48;1.38;;;;;;;;;;4699147;30;20201;-83
2021/09/19 04:12:16;;;;;;;1.77;1.67;;;;;;;;;;4699112;30;20233;-85
2021/09/19 04:14:44;;;;;;;1.35;1.25;;;;;;;;;;4699276;30;20218;-85
2021/09/19 04:17:12;;;;;;;1.23;1.23;;;;;;;;;;4698950;30;20241;-85
2021/09/19 04:19:39;;;;;;;1.48;1.40;;;;;;;;;;4699256;30;20309;-85
2021/09/19 04:22:07;;;;;;;2.20;1.92;;;;;;;;;;4699289;30;20203;-85
2021/09/19 04:24:34;;;;;;;2.00;1.90;;;;;;;;;;4698957;30;20829;-86
2021/09/19 04:27:02;;;;;;;1.98;1.88;;;;;;;;;;4698951;30;20784;-85
2021/09/19 04:29:29;;;;;;;1.80;1.70;;;;;;;;;;4698969;30;20198;-85
2021/09/19 04:31:58;;;;;;;2.00;1.88;;;;;;;;;;4699207;30;20202;-84
2021/09/19 04:34:26;;;;;;;1.40;1.30;;;;;;;;;;4698967;30;20214;-84
2021/09/19 04:36:53;;;;;;;1.20;1.20;;;;;;;;;;4699242;30;20237;-85
2021/09/19 04:39:20;;;;;;;1.30;1.30;;;;;;;;;;4698819;30;20246;-84
2021/09/19 04:41:48;;;;;;;1.45;1.38;;;;;;;;;;4699141;30;20216;-85
2021/09/19 04:44:15;;;;;;;1.38;1.27;;;;;;;;;;4699087;30;20230;-85
2021/09/19 04:46:43;;;;;;;1.67;1.33;;;;;;;;;;4699101;30;20202;-85
2021/09/19 04:49:12;;;;;;;1.17;1.08;;;;;;;;;;4698875;30;20206;-84
2021/09/19 04:51:39;;;;;;;4.07;1.48;;;;;;;;;;4699191;30;20206;-86
2021/09/19 04:54:07;;;;;;;1.35;1.25;;;;;;;;;;4698682;30;20221;-84
2021/09/19 04:56:34;;;;;;;1.65;1.55;;;;;;;;;;4702069;30;20225;-84
2021/09/19 04:59:02;;;;;;;1.92;1.77;;;;;;;;;;4702363;30;20219;-84
2021/09/19 05:01:29;;;;;;;1.92;1.65;;;;;;;;;;4701947;30;20219;-85
2021/09/19 05:03:56;;;;;;;1.50;1.40;;;;;;;;;;4702490;30;20213;-85
2021/09/19 05:06:26;;;;;;;1.70;1.60;;;;;;;;;;4702099;30;20219;-83
2021/09/19 05:08:53;;;;;;;2.30;1.83;;;;;;;;;;4702186;30;20209;-84
2021/09/19 05:11:20;;;;;;;1.50;1.40;;;;;;;;;;4702018;30;20300;-83
2021/09/19 05:13:48;;;;;;;2.42;1.83;;;;;;;;;;4701720;30;20222;-84
2021/09/19 05:16:15;;;;;;;1.25;1.15;;;;;;;;;;4701223;30;20217;-85
2021/09/19 05:18:43;;;;;;;1.88;1.77;;;;;;;;;;4701847;30;20235;-85
2021/09/19 05:21:11;;;;;;;2.13;1.92;;;;;;;;;;4701936;30;20309;-84
2021/09/19 05:23:39;;;;;;;1.50;1.40;;;;;;;;;;4701765;30;20236;-84
2021/09/19 05:26:07;;;;;;;1.58;1.45;;;;;;;;;;4701566;30;20202;-84
2021/09/19 05:28:34;;;;;;;1.42;1.33;;;;;;;;;;4701335;30;20254;-84
2021/09/19 05:31:02;;;;;;;1.75;1.40;;;;;;;;;;4701323;30;20199;-85
2021/09/19 05:33:29;;;;;;;1.60;1.50;;;;;;;;;;4701167;30;20227;-85
2021/09/19 05:35:57;;;;;;;1.60;1.50;;;;;;;;;;4701301;30;20214;-85
2021/09/19 05:38:25;;;;;;;3.25;1.88;;;;;;;;;;4701438;30;20234;-83
2021/09/19 05:40:54;;;;;;;2.40;1.40;;;;;;;;;;4701334;30;20257;-86
2021/09/19 05:43:21;;;;;;;2.25;1.98;;;;;;;;;;4701218;30;20222;-85
2021/09/19 05:45:48;;;;;;;1.50;1.40;;;;;;;;;;4701441;30;20207;-85
2021/09/19 05:48:16;;;;;;;1.63;1.52;;;;;;;;;;4701211;30;20234;-85
2021/09/19 05:50:43;;;;;;;1.65;1.55;;;;;;;;;;4701188;30;20221;-84
2021/09/19 05:53:11;;;;;;;1.60;1.50;;;;;;;;;;4701351;30;20203;-83
2021/09/19 05:55:38;;;;;;;1.63;1.52;;;;;;;;;;4700750;30;20206;-85
2021/09/19 05:58:07;;;;;;;1.60;1.50;;;;;;;;;;4701096;30;20243;-85
2021/09/19 06:00:35;;;;;;;1.80;1.40;;;;;;;;;;4701236;30;20225;-83
2021/09/19 06:03:03;;;;;;;2.55;2.35;;;;;;;;;;4701363;30;20305;-83
2021/09/19 06:05:30;;;;;;;1.42;1.33;;;;;;;;;;4698702;30;20777;-83
2021/09/19 06:07:58;;;;;;;1.77;1.67;;;;;;;;;;4682710;30;20232;-83
2021/09/19 06:10:25;;;;;;;1.65;1.55;;;;;;;;;;4683227;30;20234;-82
2021/09/19 06:12:53;;;;;;;1.60;1.50;;;;;;;;;;4683901;30;20214;-83
2021/09/19 06:15:22;;;;;;;2.00;1.90;;;;;;;;;;4684403;30;20648;-84
2021/09/19 06:17:49;;;;;;;1.80;1.70;;;;;;;;;;4700512;30;20741;-85
2021/09/19 06:20:17;;;;;;;2.17;2.00;;;;;;;;;;4700700;30;20238;-83
2021/09/19 06:22:44;;;;;;;1.80;1.70;;;;;;;;;;4700764;30;20577;-85
2021/09/19 06:25:13;;;;;;;2.17;2.08;;;;;;;;;;4700777;30;20203;-84
2021/09/19 06:27:41;;;;;;;2.10;2.00;;;;;;;;;;4700544;30;20245;-84
2021/09/19 06:30:14;;;;;;;1.85;1.75;;;;;;;;;;4701036;30;20202;-84
2021/09/19 06:32:42;;;;;;;1.80;1.70;;;;;;;;;;4700523;30;20565;-85
2021/09/19 06:35:11;;;;;;;3.28;2.25;;;;;;;;;;4700599;30;20199;-82
2021/09/19 06:37:38;;;;;;;2.33;2.13;;;;;;;;;;4683272;30;20305;-84
2021/09/19 06:40:08;;;;;;;1.80;1.70;;;;;;;;;;4682878;30;20250;-85
2021/09/19 06:42:35;;;;;;;2.13;1.92;;;;;;;;;;4683155;30;20203;-85
2021/09/19 06:45:03;;;;;;;2.50;2.30;;;;;;;;;;4683212;30;20198;-84
2021/09/19 06:47:31;;;;;;;2.70;2.50;;;;;;;;;;4699929;30;20234;-85
2021/09/19 06:50:00;;;;;;;1.88;1.77;;;;;;;;;;4700921;30;20221;-85
2021/09/19 06:52:27;;;;;;;2.90;1.80;;;;;;;;;;4700922;30;20286;-84
2021/09/19 06:54:55;;;;;;;2.15;1.98;;;;;;;;;;4700489;30;20226;-84
2021/09/19 06:57:22;;;;;;;2.47;2.28;;;;;;;;;;4700372;30;20245;-83
2021/09/19 06:59:50;;;;;;;2.58;2.20;;;;;;;;;;4699680;30;20210;-84
2021/09/19 07:02:17;;;;;;;4.72;2.50;;;;;;;;;;4699837;30;20238;-85
2021/09/19 07:04:45;;;;;;;2.17;2.08;;;;;;;;;;4700234;30;20206;-84
2021/09/19 07:07:14;;;;;;;2.75;2.50;;;;;;;;;;4699931;30;20238;-84
2021/09/19 07:09:42;;;;;;;2.35;2.15;;;;;;;;;;4697018;30;20264;-84
2021/09/19 07:12:09;;;;;;;2.53;2.33;;;;;;;;;;4697065;30;20198;-84
2021/09/19 07:14:36;;;;;;;2.65;2.45;;;;;;;;;;4696923;30;20233;-85
2021/09/19 07:17:05;;;;;;;2.47;2.33;;;;;;;;;;4696461;30;20243;-84
2021/09/19 07:19:32;;;;;;;2.58;2.38;;;;;;;;;;4696827;30;20882;-84
2021/09/19 07:22:00;;;;;;;2.50;2.38;;;;;;;;;;4696607;30;20238;-84
2021/09/19 07:24:29;;;;;;;2.40;2.20;;;;;;;;;;4696663;30;20211;-84
2021/09/19 07:26:56;;;;;;;2.03;1.92;;;;;;;;;;4696744;30;20253;-84
2021/09/19 07:29:24;;;;;;;2.65;2.45;;;;;;;;;;4696673;30;20214;-84
2021/09/19 07:31:53;;;;;;;2.25;2.15;;;;;;;;;;4696838;30;20218;-84
2021/09/19 07:34:21;;;;;;;2.67;2.13;;;;;;;;;;4697265;30;20215;-83
2021/09/19 07:36:49;;;;;;;2.40;2.20;;;;;;;;;;4696100;30;20738;-85
2021/09/19 07:39:17;;;;;;;2.75;2.03;;;;;;;;;;4696555;30;20746;-83
2021/09/19 07:41:48;;;;;;;2.55;2.22;;;;;;;;;;4696504;30;20242;-84
2021/09/19 07:44:17;;;;;;;2.58;2.38;;;;;;;;;;4696784;30;20230;-84
2021/09/19 07:46:45;;;;;;;2.55;2.38;;;;;;;;;;4696468;30;20211;-85
2021/09/19 07:49:13;;;;;;;3.15;2.60;;;;;;;;;;4696494;30;20222;-84
2021/09/19 07:51:41;;;;;;;2.50;2.30;;;;;;;;;;4696559;30;20217;-84
2021/09/19 07:54:09;;;;;;;2.80;2.60;;;;;;;;;;4695841;30;20194;-84
2021/09/19 07:56:37;;;;;;;3.10;2.50;;;;;;;;;;4695672;30;20232;-84
2021/09/19 07:59:05;;;;;;;2.42;2.33;;;;;;;;;;4696033;30;20222;-84
2021/09/19 08:01:33;;;;;;;2.38;2.25;;;;;;;;;;4696141;30;20245;-85
2021/09/19 08:04:00;;;;;;;1.88;1.77;;;;;;;;;;4696763;30;20674;-85
2021/09/19 08:06:28;;;;;;;4.15;2.83;;;;;;;;;;4696314;30;20233;-85
2021/09/19 08:08:55;;;;;;;2.53;2.00;;;;;;;;;;4696478;30;20222;-84
2021/09/19 08:11:22;;;;;;;2.35;2.22;;;;;;;;;;4696525;30;20218;-83
2021/09/19 08:13:54;;;;;;;2.10;2.00;;;;;;;;;;4696340;30;20218;-86
2021/09/19 08:16:23;;;;;;;2.78;2.58;;;;;;;;;;4695836;30;20202;-86
2021/09/19 08:18:50;;;;;;;2.30;2.10;;;;;;;;;;4696150;30;20607;-84
2021/09/19 08:21:17;;;;;;;2.10;2.00;;;;;;;;;;4696065;30;20257;-85
2021/09/19 08:23:45;;;;;;;2.35;2.03;;;;;;;;;;4695736;30;20218;-84
2021/09/19 08:26:12;;;;;;;2.03;1.92;;;;;;;;;;4695206;30;20229;-85
2021/09/19 08:28:40;;;;;;;1.90;1.80;;;;;;;;;;4695953;30;20242;-85
2021/09/19 08:31:07;;;;;;;2.30;2.05;;;;;;;;;;4698692;30;20225;-84
2021/09/19 08:33:36;;;;;;;1.90;1.80;;;;;;;;;;4701725;30;20209;-85
2021/09/19 08:36:03;;;;;;;2.78;2.58;;;;;;;;;;4699399;30;20206;-84
2021/09/19 08:38:31;;;;;;;1.90;1.80;;;;;;;;;;4699530;30;20253;-84
2021/09/19 08:40:58;;;;;;;1.70;1.60;;;;;;;;;;4699907;30;20745;-83
2021/09/19 08:43:26;;;;;;;2.13;2.03;;;;;;;;;;4699308;30;20242;-84
2021/09/19 08:45:53;;;;;;;2.47;2.05;;;;;;;;;;4699434;30;20218;-85
2021/09/19 08:48:22;;;;;;;2.20;2.10;;;;;;;;;;4699867;30;20239;-86
2021/09/19 08:50:54;;;;;;;2.78;2.58;;;;;;;;;;4699503;30;20226;-85
2021/09/19 08:53:23;;;;;;;2.75;1.88;;;;;;;;;;4699457;30;20217;-84
2021/09/19 08:55:51;;;;;;;2.42;2.22;;;;;;;;;;4701766;30;20211;-84
2021/09/19 08:58:18;;;;;;;1.90;1.80;;;;;;;;;;4702053;30;20879;-84
2021/09/19 09:00:48;;;;;;;1.83;1.73;;;;;;;;;;4702222;30;20226;-84
2021/09/19 09:03:19;;;;;;;1.50;1.40;;;;;;;;;;4701546;30;20215;-83
2021/09/19 09:05:56;;;;;;;1.80;1.70;;;;;;;;;;4701926;30;20210;-84
2021/09/19 09:08:24;;;;;;;2.17;1.98;;;;;;;;;;4701692;30;20245;-83
2021/09/19 09:10:55;;;;;;;2.58;2.38;;;;;;;;;;4700766;30;20195;-83
2021/09/19 09:13:24;;;;;;;2.10;1.90;;;;;;;;;;4701867;30;20210;-84
2021/09/19 09:16:05;;;;;;;2.00;1.90;;;;;;;;;;4701828;30;20202;-84
2021/09/19 09:18:36;;;;;;;2.78;2.58;;;;;;;;;;4701304;30;20231;-85
2021/09/19 09:21:24;;;;;;;2.80;2.30;;;;;;;;;;4701446;30;20219;-87
2021/09/19 09:23:53;;;;;;;2.80;2.60;;;;;;;;;;4701629;30;20223;-85
2021/09/19 09:26:24;;;;;;;2.17;2.03;;;;;;;;;;4701576;30;20199;-84
2021/09/19 09:29:02;;;;;;;2.90;2.58;;;;;;;;;;4701992;30;20230;-81
2021/09/19 09:31:34;;;;;;;2.65;2.45;;;;;;;;;;4683696;30;20534;-84
2021/09/19 09:34:06;;;;;;;3.08;2.88;;;;;;;;;;4684022;30;20223;-83
2021/09/19 09:36:54;;;;;;;2.55;2.35;;;;;;;;;;4684351;30;20219;-85
2021/09/19 09:39:29;;;;;;;3.25;2.95;;;;;;;;;;4675761;30;20242;-83
2021/09/19 09:42:03;;;;;;;2.83;2.63;;;;;;;;;;4702177;30;20206;-83
2021/09/19 09:44:39;;;;;;;2.65;2.40;;;;;;;;;;4701888;30;20208;-84
2021/09/19 09:47:11;;;;;;;2.30;2.10;;;;;;;;;;4701266;30;20241;-84
2021/09/19 09:49:42;;;;;;;2.58;2.38;;;;;;;;;;4701284;30;20218;-82
2021/09/19 09:52:14;;;;;;;2.67;2.47;;;;;;;;;;4701167;30;20203;-83
2021/09/19 09:54:48;;;;;;;2.85;2.40;;;;;;;;;;4701230;30;20221;-83
2021/09/19 09:57:33;;;;;;;2.53;2.33;;;;;;;;;;4700907;30;20325;-84
2021/09/19 10:00:02;;;;;;;2.20;2.10;;;;;;;;;;4701172;30;20210;-83
2021/09/19 10:02:30;;;;;;;2.10;2.00;;;;;;;;;;4700747;30;20245;-84
2021/09/19 10:04:58;;;;;;;2.50;2.13;;;;;;;;;;4701309;30;20207;-84
2021/09/19 10:07:29;;;;;;;1.85;1.75;;;;;;;;;;4701333;30;20605;-83
2021/09/19 10:09:57;;;;;;;2.38;2.25;;;;;;;;;;4701172;30;20202;-83
2021/09/19 10:12:24;;;;;;;2.17;2.08;;;;;;;;;;4701300;30;20195;-83
2021/09/19 10:14:53;;;;;;;1.92;1.83;;;;;;;;;;4700521;30;20209;-82
2021/09/19 10:17:22;;;;;;;1.95;1.80;;;;;;;;;;4683836;30;20223;-83
2021/09/19 10:19:50;;;;;;;1.92;1.83;;;;;;;;;;4686128;30;20210;-83
2021/09/19 10:22:25;;;;;;;2.55;2.35;;;;;;;;;;4701424;30;20205;-84
2021/09/19 10:24:55;;;;;;;1.70;1.60;;;;;;;;;;4701490;30;20220;-84
2021/09/19 10:27:29;;;;;;;1.90;1.80;;;;;;;;;;4700955;30;20237;-83
2021/09/19 10:29:59;;;;;;;2.20;2.00;;;;;;;;;;4697805;30;20281;-81
2021/09/19 10:32:38;;;;;;;2.10;2.00;;;;;;;;;;4701429;30;20286;-83
2021/09/19 10:35:29;;;;;;;3.47;2.28;;;;;;;;;;4701017;30;20203;-82
2021/09/19 10:38:03;;;;;;;3.20;2.13;;;;;;;;;;4683372;30;20236;-82
2021/09/19 10:40:35;;;;;;;3.03;2.83;;;;;;;;;;4683176;30;20297;-82
2021/09/19 10:43:04;;;;;;;2.40;2.20;;;;;;;;;;4683473;30;20635;-81
2021/09/19 10:45:38;;;;;;;2.60;2.40;;;;;;;;;;4683295;30;21060;-84
2021/09/19 10:48:18;;;;;;;2.50;2.30;;;;;;;;;;4683602;30;20239;-81
2021/09/19 10:50:49;;;;;;;3.20;2.72;;;;;;;;;;4683150;30;20195;-85
2021/09/19 10:53:25;;;;;;;2.20;2.10;;;;;;;;;;4682652;30;20903;-83
2021/09/19 10:55:59;;;;;;;2.40;2.30;;;;;;;;;;4700101;30;20217;-82
2021/09/19 10:58:29;;;;;;;3.20;2.92;;;;;;;;;;4700624;30;20230;-82
2021/09/19 11:01:13;;;;;;;3.28;2.97;;;;;;;;;;4700500;30;20203;-81
2021/09/19 11:03:42;;;;;;;3.08;2.88;;;;;;;;;;4700339;30;20214;-82
2021/09/19 11:06:23;;;;;;;3.58;3.28;;;;;;;;;;4699963;30;20666;-82
2021/09/19 11:08:51;;;;;;;3.25;2.95;;;;;;;;;;4700496;30;20332;-81
2021/09/19 11:11:29;;;;;;;3.08;2.88;;;;;;;;;;4700524;30;20206;-81
2021/09/19 11:14:02;;;;;;;3.10;2.90;;;;;;;;;;4700047;30;20206;-82
2021/09/19 11:16:39;;;;;;;3.03;2.83;;;;;;;;;;4700225;30;20199;-83
2021/09/19 11:19:12;;;;;;;3.00;2.80;;;;;;;;;;4700187;30;20214;-85
2021/09/19 11:21:46;;;;;;;3.30;3.03;;;;;;;;;;4700029;30;20633;-80
2021/09/19 11:24:24;;;;;;;3.13;2.92;;;;;;;;;;4700110;30;20717;-83
2021/09/19 11:26:56;;;;;;;3.00;2.55;;;;;;;;;;4699939;30;20238;-81
2021/09/19 11:29:26;;;;;;;2.28;2.08;;;;;;;;;;4699621;30;20211;-83
2021/09/19 11:31:56;;;;;;;2.25;2.05;;;;;;;;;;4699245;30;20246;-83
2021/09/19 11:34:25;;;;;;;2.75;2.55;;;;;;;;;;4699494;30;20221;-81
2021/09/19 11:36:56;;;;;;;3.78;3.47;;;;;;;;;;4699085;30;20229;-81
2021/09/19 11:39:29;;;;;;;2.75;2.50;;;;;;;;;;4699095;30;20726;-83
2021/09/19 11:41:58;;;;;;;2.38;2.17;;;;;;;;;;4697094;30;20199;-83
2021/09/19 11:44:26;;;;;;;2.05;1.95;;;;;;;;;;4700875;30;20225;-84
2021/09/19 11:46:53;;;;;;;1.73;1.63;;;;;;;;;;4700996;30;20237;-84
2021/09/19 11:49:21;;;;;;;2.28;2.17;;;;;;;;;;4700991;30;20199;-83
2021/09/19 11:51:49;;;;;;;2.00;1.90;;;;;;;;;;4686865;30;20231;-84
2021/09/19 11:54:18;;;;;;;1.85;1.75;;;;;;;;;;4688752;30;20203;-83
2021/09/19 11:56:48;;;;;;;2.10;2.00;;;;;;;;;;4702930;30;20708;-82
2021/09/19 11:59:19;;;;;;;1.95;1.85;;;;;;;;;;4702067;30;20203;-81
2021/09/19 12:01:46;;;;;;;2.17;2.08;;;;;;;;;;4701252;30;20195;-81
2021/09/19 12:04:16;;;;;;;2.42;2.00;;;;;;;;;;4700681;30;20246;-84
2021/09/19 12:06:45;;;;;;;1.90;1.70;;;;;;;;;;4700893;30;20709;-83
2021/09/19 12:09:17;;;;;;;1.90;1.80;;;;;;;;;;4701186;30;20225;-84
2021/09/19 12:11:48;;;;;;;1.77;1.67;;;;;;;;;;4702630;30;20285;-82
2021/09/19 12:14:26;;;;;;;2.80;2.60;;;;;;;;;;4698051;30;20303;-85
2021/09/19 12:17:03;;;;;;;6.25;4.13;;;;;;;;;;4694821;30;20598;-84
2021/09/19 12:19:35;;;;;;;2.40;2.20;;;;;;;;;;4694647;30;20779;-84
2021/09/19 12:22:04;;;;;;;1.80;1.70;;;;;;;;;;4684221;30;20218;-82
2021/09/19 12:24:36;;;;;;;2.58;2.35;;;;;;;;;;4697666;30;20617;-82
2021/09/19 12:27:16;;;;;;;2.40;2.08;;;;;;;;;;4691540;30;20230;-84
2021/09/19 12:29:58;;;;;;;2.60;2.40;;;;;;;;;;4692752;30;20675;-82
2021/09/19 12:32:40;;;;;;;2.17;2.08;;;;;;;;;;4700198;30;20218;-83
2021/09/19 12:35:11;;;;;;;1.95;1.85;;;;;;;;;;4682886;30;20215;-83
2021/09/19 12:37:43;;;;;;;2.35;2.17;;;;;;;;;;4681830;30;20231;-83
2021/09/19 12:40:13;;;;;;;3.13;2.08;;;;;;;;;;4682003;30;20266;-83
2021/09/19 12:42:40;;;;;;;2.42;2.25;;;;;;;;;;4681899;30;20202;-81
2021/09/19 12:45:12;;;;;;;2.55;2.35;;;;;;;;;;4681677;30;20238;-83
2021/09/19 12:47:41;;;;;;;2.83;2.63;;;;;;;;;;4681816;30;20235;-83
2021/09/19 12:50:11;;;;;;;2.50;2.30;;;;;;;;;;4681733;30;20219;-82
2021/09/19 12:52:42;;;;;;;2.95;2.75;;;;;;;;;;4682337;30;20222;-82
2021/09/19 12:55:17;;;;;;;2.42;2.22;;;;;;;;;;4681380;30;20243;-84
2021/09/19 12:57:45;;;;;;;2.67;2.38;;;;;;;;;;4681597;30;20245;-83
2021/09/19 13:00:15;;;;;;;2.88;2.00;;;;;;;;;;4681519;30;20222;-83
2021/09/19 13:02:58;;;;;;;2.10;2.00;;;;;;;;;;4681618;30;20707;-83
2021/09/19 13:05:26;;;;;;;1.90;1.80;;;;;;;;;;4683800;30;20269;-83
2021/09/19 13:07:53;;;;;;;1.90;1.80;;;;;;;;;;4683073;30;20231;-84
2021/09/19 13:10:21;;;;;;;2.83;2.50;;;;;;;;;;4681689;30;20211;-83
2021/09/19 13:12:50;;;;;;;2.75;2.33;;;;;;;;;;4684645;30;20211;-83
2021/09/19 13:15:20;;;;;;;2.22;2.13;;;;;;;;;;4684966;30;20211;-83
2021/09/19 13:17:47;;;;;;;2.80;2.60;;;;;;;;;;4685598;30;20297;-83
2021/09/19 13:20:15;;;;;;;2.67;2.47;;;;;;;;;;4696110;30;20208;-83
2021/09/19 13:22:43;;;;;;;2.08;1.90;;;;;;;;;;4722042;30;20206;-83
2021/09/19 13:25:20;;;;;;;3.08;2.80;;;;;;;;;;4710570;30;20238;-84
2021/09/19 13:27:48;;;;;;;2.60;2.40;;;;;;;;;;4701908;30;20238;-83
2021/09/19 13:30:23;;;;;;;3.03;2.72;;;;;;;;;;4703295;30;20222;-84
2021/09/19 13:32:52;;;;;;;3.10;2.80;;;;;;;;;;4703803;30;20206;-84
2021/09/19 13:35:28;;;;;;;2.40;2.20;;;;;;;;;;4704165;30;20195;-84
2021/09/19 13:37:56;;;;;;;3.80;3.50;;;;;;;;;;4703552;30;20245;-86
2021/09/19 13:40:24;;;;;;;3.00;2.80;;;;;;;;;;4701899;30;20265;-84
2021/09/19 13:42:53;;;;;;;1.85;1.75;;;;;;;;;;4701968;30;20198;-84
2021/09/19 13:45:22;;;;;;;2.08;1.98;;;;;;;;;;4701122;30;20229;-84
2021/09/19 13:47:49;;;;;;;2.13;1.98;;;;;;;;;;4686627;30;20235;-83
2021/09/19 13:50:32;;;;;;;2.33;2.17;;;;;;;;;;4687141;30;20210;-85
2021/09/19 13:53:03;;;;;;;2.38;2.20;;;;;;;;;;4696735;30;20206;-85
2021/09/19 13:55:31;;;;;;;2.08;1.98;;;;;;;;;;4684340;30;20218;-82
2021/09/19 13:57:58;;;;;;;1.98;1.88;;;;;;;;;;4683977;30;20719;-81
2021/09/19 14:00:28;;;;;;;2.28;2.17;;;;;;;;;;4684203;30;20215;-81
2021/09/19 14:02:55;;;;;;;3.45;2.30;;;;;;;;;;4683130;30;20646;-81
2021/09/19 14:05:23;;;;;;;2.92;2.72;;;;;;;;;;4684240;30;20259;-81
2021/09/19 14:07:50;;;;;;;3.97;2.70;;;;;;;;;;4684244;30;20235;-82
2021/09/19 14:10:19;;;;;;;2.65;2.45;;;;;;;;;;4696555;30;20743;-81
2021/09/19 14:12:46;;;;;;;2.70;2.50;;;;;;;;;;4701051;30;20201;-81
2021/09/19 14:15:14;;;;;;;2.40;2.20;;;;;;;;;;4701140;30;20226;-81
2021/09/19 14:17:43;;;;;;;2.67;2.47;;;;;;;;;;4701197;30;20230;-82
2021/09/19 14:20:13;;;;;;;2.55;2.30;;;;;;;;;;4700882;30;20647;-81
2021/09/19 14:22:41;;;;;;;2.88;2.67;;;;;;;;;;4700847;30;20670;-82
2021/09/19 14:25:10;;;;;;;2.42;2.22;;;;;;;;;;4701039;30;20223;-81
2021/09/19 14:27:39;;;;;;;2.85;2.50;;;;;;;;;;4700135;30;20231;-83
2021/09/19 14:30:09;;;;;;;2.85;2.65;;;;;;;;;;4700966;30;20571;-81
2021/09/19 14:32:37;;;;;;;2.88;2.65;;;;;;;;;;4700799;30;20233;-82
2021/09/19 14:35:07;;;;;;;3.05;2.80;;;;;;;;;;4701034;30;20199;-82
2021/09/19 14:37:36;;;;;;;3.03;2.72;;;;;;;;;;4701599;30;20600;-81
2021/09/19 14:40:04;;;;;;;2.80;2.60;;;;;;;;;;4701637;30;20247;-82
2021/09/19 14:42:31;;;;;;;2.60;2.38;;;;;;;;;;4702062;30;20206;-82
2021/09/19 14:44:59;;;;;;;2.45;2.28;;;;;;;;;;4701123;30;20291;-82
2021/09/19 14:47:28;;;;;;;2.70;2.50;;;;;;;;;;4701211;30;20248;-82
2021/09/19 14:49:56;;;;;;;2.25;2.15;;;;;;;;;;4701240;30;20713;-82
2021/09/19 14:52:24;;;;;;;2.75;2.17;;;;;;;;;;4691485;30;20266;-82
2021/09/19 14:54:52;;;;;;;1.70;1.60;;;;;;;;;;4683138;30;20223;-82
2021/09/19 14:57:20;;;;;;;2.17;2.03;;;;;;;;;;4682965;30;20747;-82
2021/09/19 14:59:47;;;;;;;2.20;2.00;;;;;;;;;;4683502;30;20227;-82